Time;durP1;ratioP1;P1;durP2;ratioP2;P2;SDS_P1;SDS_P2;PMS_P1;PMS_P2;Temp;Humidity;BMP_temperature;BMP_pressure;BME280_temperature;BME280_humidity;BME280_pressure;Samples;Min_cycle;Max_cycle;Signal;HPM_P1;HPM_P2
2023/04/04 00:02:45;;;;;;;1.90;1.00;;;;;;;19.43;47.53;97670.06;10321829;28;20039;-73
2023/04/04 00:08:05;;;;;;;1.50;1.10;;;;;;;19.41;47.36;97666.88;10335293;28;20388;-72
2023/04/04 00:13:25;;;;;;;1.55;1.10;;;;;;;19.40;47.49;97659.84;10321466;28;20047;-73
2023/04/04 00:18:45;;;;;;;1.33;1.10;;;;;;;19.40;47.37;97648.25;10334885;28;20380;-73
2023/04/04 00:24:05;;;;;;;1.73;1.00;;;;;;;19.38;47.27;97643.13;10334673;28;20042;-73
2023/04/04 00:29:24;;;;;;;1.65;1.10;;;;;;;19.36;47.25;97648.03;10324286;28;20058;-73
2023/04/04 00:34:44;;;;;;;1.05;0.90;;;;;;;19.36;47.33;97643.44;10348890;28;20042;-73
2023/04/04 00:40:04;;;;;;;1.20;1.05;;;;;;;19.34;47.22;97639.44;10333948;28;20054;-73
2023/04/04 00:45:24;;;;;;;1.58;1.10;;;;;;;19.33;47.25;97630.56;10349145;28;20380;-74
2023/04/04 00:50:44;;;;;;;3.63;1.10;;;;;;;19.31;47.16;97629.25;10333350;28;20054;-74
2023/04/04 00:56:03;;;;;;;1.52;1.00;;;;;;;19.30;47.26;97625.72;10348167;28;20038;-74
2023/04/04 01:01:26;;;;;;;1.13;0.90;;;;;;;19.29;47.30;97620.66;10320198;28;20046;-73
2023/04/04 01:06:45;;;;;;;1.52;1.25;;;;;;;19.28;47.06;97619.84;10333642;28;20069;-73
2023/04/04 01:12:05;;;;;;;1.15;1.00;;;;;;;19.28;47.16;97613.63;10319538;28;20450;-73
2023/04/04 01:17:26;;;;;;;1.23;0.88;;;;;;;19.25;47.10;97615.06;10332814;28;20089;-73
2023/04/04 01:22:48;;;;;;;1.08;0.80;;;;;;;19.24;46.91;97613.44;10347274;28;20042;-73
2023/04/04 01:28:09;;;;;;;1.70;1.02;;;;;;;19.24;46.87;97610.75;10292521;28;20133;-73
2023/04/04 01:33:36;;;;;;;1.38;0.90;;;;;;;19.21;47.12;97603.25;10319041;28;20042;-73
2023/04/04 01:39:14;;;;;;;1.30;0.93;;;;;;;19.20;46.84;97600.84;10305761;28;20053;-73
2023/04/04 01:44:34;;;;;;;1.70;1.00;;;;;;;19.20;46.77;97600.84;10318495;28;20042;-73
2023/04/04 01:49:54;;;;;;;1.50;0.90;;;;;;;19.19;46.76;97599.22;10318473;28;20042;-73
2023/04/04 01:55:15;;;;;;;1.42;1.00;;;;;;;19.17;46.70;97596.84;10318340;28;20046;-73
2023/04/04 02:00:34;;;;;;;1.73;1.00;;;;;;;19.13;46.89;97596.66;10331752;28;20049;-73
2023/04/04 02:05:56;;;;;;;1.13;0.80;;;;;;;19.14;46.90;97600.16;10325526;28;20042;-73
2023/04/04 02:11:15;;;;;;;1.60;0.85;;;;;;;19.12;46.86;97584.25;10339690;28;20050;-73
2023/04/04 02:16:35;;;;;;;1.15;0.75;;;;;;;19.11;46.83;97587.25;10326349;28;20053;-73
2023/04/04 02:21:55;;;;;;;0.77;0.70;;;;;;;19.10;46.85;97589.16;10354018;28;20406;-73
2023/04/04 02:27:14;;;;;;;0.82;0.70;;;;;;;19.08;46.89;97580.53;10321131;28;20503;-73
2023/04/04 02:32:34;;;;;;;0.75;0.75;;;;;;;19.07;46.81;97587.06;10338911;28;20077;-73
2023/04/04 02:37:54;;;;;;;1.55;0.80;;;;;;;19.07;46.75;97573.56;10325050;28;20069;-73
2023/04/04 02:43:20;;;;;;;1.48;0.85;;;;;;;19.06;46.64;97579.25;10339122;28;20045;-73
2023/04/04 02:48:42;;;;;;;1.58;1.10;;;;;;;19.04;46.66;97582.25;10338248;28;20046;-73
2023/04/04 02:54:02;;;;;;;1.33;0.90;;;;;;;19.02;46.63;97579.06;10324765;28;20114;-73
2023/04/04 02:59:29;;;;;;;1.55;1.05;;;;;;;19.02;46.84;97583.66;10313146;28;20042;-73
2023/04/04 03:04:49;;;;;;;1.30;0.90;;;;;;;19.00;46.85;97581.25;10324212;28;20101;-73
2023/04/04 03:10:10;;;;;;;1.20;0.82;;;;;;;18.99;46.79;97576.94;10324010;28;20513;-73
2023/04/04 03:15:30;;;;;;;0.95;0.88;;;;;;;18.98;46.55;97580.75;10351500;28;20093;-73
2023/04/04 03:20:51;;;;;;;1.38;0.90;;;;;;;18.98;46.70;97571.88;10337179;28;20116;-73
2023/04/04 03:26:10;;;;;;;1.00;0.80;;;;;;;18.95;46.61;97573.25;10321735;28;20503;-73
2023/04/04 03:31:30;;;;;;;1.50;1.08;;;;;;;18.93;46.61;97573.56;10336546;28;20380;-73
2023/04/04 03:36:52;;;;;;;1.08;0.90;;;;;;;18.93;46.60;97576.28;10336396;28;20042;-73
2023/04/04 03:42:12;;;;;;;1.30;0.73;;;;;;;18.93;46.57;97575.47;10322962;28;20054;-73
2023/04/04 03:47:32;;;;;;;1.02;0.93;;;;;;;18.92;46.59;97576.56;10336079;28;20108;-73
2023/04/04 03:52:52;;;;;;;0.95;0.85;;;;;;;18.90;46.51;97581.47;10308976;28;20392;-73
2023/04/04 03:58:12;;;;;;;1.10;0.80;;;;;;;18.89;46.50;97575.25;10335551;28;20042;-73
2023/04/04 04:03:32;;;;;;;0.80;0.80;;;;;;;18.87;46.57;97579.38;10321935;28;20054;-73
2023/04/04 04:08:52;;;;;;;0.77;0.70;;;;;;;18.87;46.46;97582.06;10321739;28;20050;-73
2023/04/04 04:14:11;;;;;;;0.80;0.80;;;;;;;18.84;46.66;97582.69;10334878;28;20403;-72
2023/04/04 04:19:31;;;;;;;0.82;0.80;;;;;;;18.84;46.57;97582.69;10334637;28;20042;-73
2023/04/04 04:24:51;;;;;;;1.30;1.00;;;;;;;18.83;46.46;97581.06;10348351;28;20050;-73
2023/04/04 04:30:11;;;;;;;0.60;0.60;;;;;;;18.83;46.87;97581.84;10322121;28;20113;-73
2023/04/04 04:35:38;;;;;;;0.60;0.60;;;;;;;18.84;47.31;97571.88;10334763;28;20053;-73
2023/04/04 04:41:00;;;;;;;5.05;0.82;;;;;;;18.87;47.11;97595.56;10307488;28;20565;-73
2023/04/04 04:46:27;;;;;;;0.80;0.80;;;;;;;18.89;47.49;97582.56;10307787;28;20545;-73
2023/04/04 04:51:48;;;;;;;0.60;0.60;;;;;;;18.91;47.40;97577.66;10320074;28;20053;-73
2023/04/04 04:57:09;;;;;;;2.38;0.80;;;;;;;18.93;47.51;97578.16;10319946;28;20046;-73
2023/04/04 05:02:33;;;;;;;2.05;0.80;;;;;;;18.94;47.45;97574.38;10320146;28;20041;-73
2023/04/04 05:07:53;;;;;;;1.15;0.90;;;;;;;18.94;47.13;97577.84;10333005;28;20054;-73
2023/04/04 05:13:12;;;;;;;1.67;0.70;;;;;;;18.97;47.12;97581.84;10319221;28;20047;-73
2023/04/04 05:18:37;;;;;;;0.50;0.50;;;;;;;18.99;47.19;97593.16;10333334;28;20038;-73
2023/04/04 05:24:01;;;;;;;1.88;0.70;;;;;;;19.01;46.73;97593.66;10319537;28;20061;-73
2023/04/04 05:29:21;;;;;;;3.50;0.80;;;;;;;19.04;46.79;97598.47;10292852;28;20087;-73
2023/04/04 05:34:41;;;;;;;0.98;0.75;;;;;;;19.08;46.62;97596.75;10305623;28;20043;-73
2023/04/04 05:40:07;;;;;;;0.70;0.70;;;;;;;19.11;46.54;97598.03;10292290;28;20448;-73
2023/04/04 05:45:28;;;;;;;1.10;0.80;;;;;;;19.13;46.42;97596.66;10292163;28;20487;-73
2023/04/04 05:50:48;;;;;;;1.20;0.80;;;;;;;19.17;46.54;97603.06;10291779;28;20122;-73
2023/04/04 05:56:10;;;;;;;2.85;0.90;;;;;;;19.20;46.24;97598.16;10291969;28;20121;-73
2023/04/04 06:01:30;;;;;;;1.05;0.80;;;;;;;19.22;46.15;97599.44;10278164;28;20530;-73
2023/04/04 06:06:52;;;;;;;0.77;0.73;;;;;;;19.26;46.22;97603.13;10278455;28;20543;-73
2023/04/04 06:12:13;;;;;;;0.80;0.73;;;;;;;19.27;46.02;97604.75;10278129;28;20480;-73
2023/04/04 06:17:34;;;;;;;0.85;0.75;;;;;;;19.31;45.91;97602.25;10304832;28;20047;-73
2023/04/04 06:22:54;;;;;;;0.88;0.88;;;;;;;19.35;45.99;97608.63;10291324;28;20070;-73
2023/04/04 06:28:16;;;;;;;0.80;0.80;;;;;;;19.38;45.76;97610.72;10304857;28;20050;-73
2023/04/04 06:33:38;;;;;;;0.68;0.68;;;;;;;19.44;45.76;97616.81;10345768;28;20047;-73
2023/04/04 06:38:58;;;;;;;1.15;0.70;;;;;;;19.46;45.65;97614.59;10330874;28;20046;-72
2023/04/04 06:44:17;;;;;;;0.77;0.73;;;;;;;19.50;45.68;97613.72;10317482;28;20049;-73
2023/04/04 06:49:37;;;;;;;1.10;0.85;;;;;;;19.52;45.96;97613.38;10333898;28;20057;-73
2023/04/04 06:54:57;;;;;;;0.77;0.73;;;;;;;19.55;45.96;97613.59;10338041;28;20043;-73
2023/04/04 07:00:16;;;;;;;1.08;0.75;;;;;;;19.59;46.06;97613.78;10337783;28;20049;-73
2023/04/04 07:05:38;;;;;;;0.82;0.65;;;;;;;19.63;46.09;97619.38;10324202;28;20046;-73
2023/04/04 07:10:59;;;;;;;1.15;0.80;;;;;;;19.67;46.14;97604.94;10337653;28;20046;-73
2023/04/04 07:16:18;;;;;;;1.08;0.77;;;;;;;19.72;46.04;97607.56;10323796;28;20046;-73
2023/04/04 07:21:38;;;;;;;0.70;0.70;;;;;;;19.77;46.00;97612.06;10310167;28;20483;-73
2023/04/04 07:26:58;;;;;;;1.10;0.80;;;;;;;19.82;46.01;97603.84;10333323;28;20060;-73
2023/04/04 07:32:17;;;;;;;0.88;0.70;;;;;;;19.86;45.96;97604.81;10336648;28;20053;-73
2023/04/04 07:37:37;;;;;;;0.77;0.73;;;;;;;19.90;45.95;97605.81;10336414;28;20053;-73
2023/04/04 07:42:56;;;;;;;0.93;0.70;;;;;;;19.93;46.28;97597.09;10336564;28;20097;-74
2023/04/04 07:48:17;;;;;;;0.85;0.70;;;;;;;19.99;45.80;97596.94;10322423;28;20054;-73
2023/04/04 07:53:36;;;;;;;1.63;0.65;;;;;;;20.00;45.92;97601.25;10336751;28;20399;-74
2023/04/04 07:58:55;;;;;;;5.13;0.70;;;;;;;19.99;46.15;97594.25;10335742;28;20038;-72
2023/04/04 08:04:15;;;;;;;2.03;0.68;;;;;;;20.02;46.42;97585.53;10335214;28;20411;-73
2023/04/04 08:09:35;;;;;;;1.30;0.80;;;;;;;20.07;46.61;97588.09;10322093;28;20065;-73
2023/04/04 08:14:54;;;;;;;2.85;0.60;;;;;;;20.11;46.74;97587.19;10349999;28;20043;-73
2023/04/04 08:20:14;;;;;;;0.77;0.70;;;;;;;20.12;46.76;97587.97;10307792;28;20043;-74
2023/04/04 08:25:34;;;;;;;2.63;0.77;;;;;;;20.18;46.64;97581.31;10349606;28;20050;-73
2023/04/04 08:30:54;;;;;;;4.55;0.82;;;;;;;20.25;48.02;97584.41;10267946;28;20058;-73
2023/04/04 08:36:14;;;;;;;2.28;1.10;;;;;;;20.27;48.55;97582.19;10268591;28;20090;-73
2023/04/04 08:41:34;;;;;;;5.00;1.10;;;;;;;20.32;49.74;97584.75;10254029;28;20043;-73
2023/04/04 08:46:55;;;;;;;4.38;1.15;;;;;;;20.38;50.44;97582.72;10253792;28;20043;-73
2023/04/04 08:52:20;;;;;;;2.97;1.05;;;;;;;20.41;51.46;97578.59;10267207;28;20043;-73
2023/04/04 08:57:40;;;;;;;2.17;0.88;;;;;;;20.43;51.36;97579.09;10255196;28;20054;-72
2023/04/04 09:03:07;;;;;;;4.15;0.90;;;;;;;20.45;51.46;97580.38;10267547;28;20047;-73
2023/04/04 09:08:27;;;;;;;1.20;0.90;;;;;;;20.47;51.11;97574.66;10267199;28;20051;-73
2023/04/04 09:13:48;;;;;;;2.67;0.90;;;;;;;20.48;51.00;97555.41;10266075;28;20094;-73
2023/04/04 09:19:07;;;;;;;0.85;0.70;;;;;;;20.48;50.69;97554.56;10266275;28;20404;-74
2023/04/04 09:24:41;;;;;;;1.63;0.73;;;;;;;20.48;50.63;97566.22;10252362;28;20098;-73
2023/04/04 09:30:01;;;;;;;1.20;0.68;;;;;;;20.49;50.26;97564.31;10276466;28;20538;-73
2023/04/04 09:35:21;;;;;;;1.90;0.90;;;;;;;20.49;50.23;97561.59;10305743;28;20404;-83
2023/04/04 09:40:41;;;;;;;4.57;0.80;;;;;;;20.49;49.58;97561.59;10305646;28;20053;-73
2023/04/04 09:46:02;;;;;;;2.15;0.70;;;;;;;20.50;49.67;97560.47;10306250;28;20043;-72
2023/04/04 09:51:21;;;;;;;1.35;0.70;;;;;;;20.51;49.34;97557.47;10307667;28;20050;-72
2023/04/04 09:56:42;;;;;;;2.28;0.70;;;;;;;20.52;47.70;97555.53;10305077;28;20484;-74
2023/04/04 10:02:02;;;;;;;2.60;0.90;;;;;;;20.52;47.69;97574.50;10303333;28;20101;-73
2023/04/04 10:07:25;;;;;;;5.18;1.50;;;;;;;20.53;47.54;97568.78;10306490;28;20043;-73
2023/04/04 10:12:46;;;;;;;8.57;1.90;;;;;;;20.51;44.81;97567.50;10305174;28;20039;-73
2023/04/04 10:18:06;;;;;;;8.25;2.78;;;;;;;20.50;45.71;97552.34;10304943;28;20042;-73
2023/04/04 10:23:26;;;;;;;10.90;3.13;;;;;;;20.48;43.93;97551.88;10306406;28;20051;-72
2023/04/04 10:28:46;;;;;;;11.20;3.08;;;;;;;20.46;42.71;97554.88;10315001;28;20069;-73
2023/04/04 10:34:11;;;;;;;7.82;2.78;;;;;;;20.44;40.42;97550.91;10325642;28;20406;-73
2023/04/04 10:39:45;;;;;;;9.10;3.33;;;;;;;20.43;40.94;97541.19;10339016;28;20069;-74
2023/04/04 10:45:08;;;;;;;7.90;3.13;;;;;;;20.45;41.49;97533.56;10325238;28;20073;-73
2023/04/04 10:50:30;;;;;;;9.13;3.05;;;;;;;20.44;41.39;97524.63;10338535;28;20057;-74
2023/04/04 10:55:50;;;;;;;9.63;3.20;;;;;;;20.46;41.75;97525.09;10324854;28;20509;-74
2023/04/04 11:01:09;;;;;;;8.45;2.80;;;;;;;20.46;41.91;97525.09;10337837;28;20046;-73
2023/04/04 11:07:11;;;;;;;7.05;2.63;;;;;;;20.45;41.92;97511.91;10310816;28;20434;-73
2023/04/04 11:12:37;;;;;;;6.80;2.65;;;;;;;20.44;42.34;97511.09;10324021;28;20051;-73
2023/04/04 11:17:58;;;;;;;7.03;2.45;;;;;;;20.44;42.48;97513.78;10338118;28;20043;-74
2023/04/04 11:23:20;;;;;;;7.22;2.50;;;;;;;20.43;42.62;97504.09;10337135;28;20415;-74
2023/04/04 11:28:40;;;;;;;6.03;2.60;;;;;;;20.44;42.74;97507.59;10329516;28;20054;-74
2023/04/04 11:33:59;;;;;;;5.68;2.65;;;;;;;20.43;42.82;97500.59;10351130;28;20134;-74
2023/04/04 11:39:29;;;;;;;7.32;2.28;;;;;;;20.42;42.92;97499.00;10350883;28;20061;-74
2023/04/04 11:44:55;;;;;;;4.80;2.53;;;;;;;20.42;42.97;97509.81;10296364;28;20042;-74
2023/04/04 11:50:15;;;;;;;4.85;2.33;;;;;;;20.40;43.04;97501.22;10336204;28;20070;-74
2023/04/04 11:55:42;;;;;;;7.88;2.35;;;;;;;20.40;43.20;97502.00;10322401;28;20407;-74
2023/04/04 12:01:02;;;;;;;5.13;2.10;;;;;;;20.40;43.17;97493.09;10322166;28;20446;-74
2023/04/04 12:06:22;;;;;;;5.65;2.30;;;;;;;20.38;43.25;97495.31;10321831;28;20053;-74
2023/04/04 12:11:43;;;;;;;4.57;2.00;;;;;;;20.38;43.29;97487.19;10321958;28;20072;-73
2023/04/04 12:17:03;;;;;;;6.55;2.13;;;;;;;20.36;43.33;97490.22;10335391;28;20399;-74
2023/04/04 12:22:23;;;;;;;5.68;1.95;;;;;;;20.37;43.17;97494.53;10307767;28;20038;-74
2023/04/04 12:27:43;;;;;;;4.70;1.98;;;;;;;20.24;37.19;97485.38;10329542;28;20062;-74
2023/04/04 12:33:03;;;;;;;5.63;2.13;;;;;;;19.94;36.77;97476.97;10334713;28;20483;-74
2023/04/04 12:38:23;;;;;;;3.40;1.95;;;;;;;20.09;40.33;97474.97;10334241;28;20053;-72
2023/04/04 12:43:45;;;;;;;4.55;1.95;;;;;;;20.17;40.73;97473.41;10320624;28;20053;-73
2023/04/04 12:49:07;;;;;;;4.13;2.00;;;;;;;20.21;41.07;97466.28;10319538;28;20050;-73
2023/04/04 12:54:28;;;;;;;2.67;1.90;;;;;;;20.22;41.45;97452.44;10333791;28;20073;-73
2023/04/04 12:59:48;;;;;;;3.25;1.70;;;;;;;20.23;41.66;97464.88;10320010;28;20431;-73
2023/04/04 13:05:08;;;;;;;2.92;1.40;;;;;;;20.22;41.84;97463.25;10319884;28;20491;-73
2023/04/04 13:10:28;;;;;;;5.45;1.58;;;;;;;20.23;42.27;97454.03;10319760;28;20120;-71
2023/04/04 13:15:50;;;;;;;3.95;1.85;;;;;;;20.23;42.45;97448.63;10333317;28;20042;-72
2023/04/04 13:21:11;;;;;;;4.82;1.63;;;;;;;20.22;42.57;97447.03;10332704;28;20050;-73
2023/04/04 13:26:30;;;;;;;2.70;1.48;;;;;;;20.23;42.60;97442.41;10330404;28;20046;-73
2023/04/04 13:31:51;;;;;;;4.20;1.55;;;;;;;20.22;42.77;97435.41;10332831;28;20050;-75
2023/04/04 13:37:11;;;;;;;3.67;1.50;;;;;;;20.21;42.84;97434.63;10332307;28;20046;-73
2023/04/04 13:42:30;;;;;;;2.97;1.38;;;;;;;20.22;42.64;97430.00;10318825;28;20073;-73
2023/04/04 13:47:50;;;;;;;3.60;1.67;;;;;;;20.22;42.56;97433.50;10332250;28;20058;-73
2023/04/04 13:53:10;;;;;;;3.13;1.50;;;;;;;20.21;42.70;97440.03;10304932;28;20054;-73
2023/04/04 13:58:29;;;;;;;3.00;1.30;;;;;;;20.21;42.60;97437.34;10349831;28;20053;-73
2023/04/04 14:03:49;;;;;;;3.28;1.50;;;;;;;20.21;42.66;97439.22;10340139;28;20057;-73
2023/04/04 14:09:09;;;;;;;3.20;1.45;;;;;;;20.21;42.59;97439.22;10354853;28;20120;-73
2023/04/04 14:14:28;;;;;;;3.40;1.48;;;;;;;20.21;42.60;97439.22;10326000;28;20202;-73
2023/04/04 14:19:48;;;;;;;1.77;1.40;;;;;;;20.18;42.53;97432.53;10325900;28;20507;-73
2023/04/04 14:25:07;;;;;;;1.35;1.08;;;;;;;20.17;42.65;97444.47;10339424;28;20042;-73
2023/04/04 14:30:27;;;;;;;2.25;1.48;;;;;;;20.14;42.57;97436.97;10326454;28;20062;-73
2023/04/04 14:35:47;;;;;;;3.35;1.35;;;;;;;20.14;42.55;97436.97;10339168;28;20042;-73
2023/04/04 14:41:07;;;;;;;2.85;1.33;;;;;;;20.14;42.37;97440.47;10339342;28;20042;-73
2023/04/04 14:46:26;;;;;;;1.77;1.27;;;;;;;20.08;41.43;97424.72;10339992;28;20046;-74
2023/04/04 14:51:46;;;;;;;1.48;1.15;;;;;;;20.04;35.52;97431.84;10338397;28;20514;-74
2023/04/04 14:57:05;;;;;;;2.13;1.40;;;;;;;20.05;40.00;97436.13;10352961;28;20487;-74
2023/04/04 15:02:25;;;;;;;3.63;1.40;;;;;;;20.08;39.89;97430.13;10338198;28;20049;-74
2023/04/04 15:07:45;;;;;;;2.33;1.40;;;;;;;20.02;39.72;97434.06;10337973;28;20125;-74
2023/04/04 15:13:04;;;;;;;3.25;1.40;;;;;;;20.06;39.72;97430.41;10337046;28;20042;-74
2023/04/04 15:18:24;;;;;;;2.95;1.05;;;;;;;20.08;39.89;97430.13;10337305;28;20049;-74
2023/04/04 15:23:44;;;;;;;1.80;1.20;;;;;;;20.08;40.11;97430.91;10337313;28;20062;-74
2023/04/04 15:29:04;;;;;;;4.20;1.20;;;;;;;20.08;40.38;97424.72;10327907;28;20054;-74
2023/04/04 15:34:25;;;;;;;2.10;1.00;;;;;;;20.09;40.34;97419.00;10309802;28;20516;-74
2023/04/04 15:39:47;;;;;;;2.05;1.05;;;;;;;20.10;40.34;97417.88;10322757;28;20045;-74
2023/04/04 15:45:08;;;;;;;1.75;1.08;;;;;;;20.12;40.40;97418.34;10336501;28;20049;-73
2023/04/04 15:50:27;;;;;;;1.65;1.00;;;;;;;20.13;40.39;97413.72;10336312;28;20046;-74
2023/04/04 15:55:47;;;;;;;1.10;1.00;;;;;;;20.14;40.49;97416.13;10350943;28;20379;-74
2023/04/04 16:01:06;;;;;;;2.00;1.20;;;;;;;20.17;40.55;97411.19;10335826;28;20475;-74
2023/04/04 16:06:26;;;;;;;2.13;1.08;;;;;;;20.19;40.41;97411.69;10322082;28;20043;-74
2023/04/04 16:11:46;;;;;;;1.55;0.98;;;;;;;20.19;40.42;97409.78;10335597;28;20046;-74
2023/04/04 16:17:05;;;;;;;1.20;0.90;;;;;;;20.20;40.50;97411.38;10336412;28;20049;-74
2023/04/04 16:22:25;;;;;;;2.17;1.00;;;;;;;20.20;40.71;97411.38;10333969;28;20042;-74
2023/04/04 16:27:45;;;;;;;1.15;0.90;;;;;;;20.19;40.60;97409.78;10329211;28;20062;-75
2023/04/04 16:33:05;;;;;;;1.83;1.00;;;;;;;20.21;40.59;97409.47;10334936;28;20039;-75
2023/04/04 16:38:25;;;;;;;1.20;1.10;;;;;;;20.18;40.49;97408.19;10333966;28;20407;-74
2023/04/04 16:43:48;;;;;;;2.08;0.95;;;;;;;19.88;36.29;97396.31;10349566;28;20046;-74
2023/04/04 16:49:09;;;;;;;1.73;1.00;;;;;;;19.92;39.72;97399.97;10348671;28;20053;-74
2023/04/04 16:54:28;;;;;;;2.03;1.10;;;;;;;19.99;39.97;97400.31;10320276;28;20038;-74
2023/04/04 16:59:48;;;;;;;1.30;1.00;;;;;;;20.02;40.28;97404.31;10319803;28;20042;-74
2023/04/04 17:05:08;;;;;;;1.95;0.90;;;;;;;20.02;40.50;97398.91;10348714;28;20034;-75
2023/04/04 17:10:28;;;;;;;1.33;0.90;;;;;;;20.00;40.83;97401.13;10348310;28;20118;-75
2023/04/04 17:15:47;;;;;;;2.33;1.17;;;;;;;19.98;40.96;97408.75;10347671;28;20039;-75
2023/04/04 17:21:07;;;;;;;1.08;0.95;;;;;;;19.97;41.03;97405.25;10319136;28;20384;-74
2023/04/04 17:26:27;;;;;;;3.15;1.40;;;;;;;19.81;35.85;97407.56;10327374;28;20126;-73
2023/04/04 17:31:47;;;;;;;16.33;3.58;;;;;;;19.85;40.53;97413.16;10344297;28;20045;-73
2023/04/04 17:37:09;;;;;;;14.05;3.42;;;;;;;19.85;41.12;97413.94;10382301;28;20060;-73
2023/04/04 17:42:30;;;;;;;12.07;3.00;;;;;;;19.88;41.37;97410.63;10359548;28;20050;-73
2023/04/04 17:47:49;;;;;;;10.43;2.35;;;;;;;19.91;41.17;97423.50;10373235;28;20052;-73
2023/04/04 17:53:08;;;;;;;10.40;2.45;;;;;;;19.89;40.95;97419.53;10387102;28;20061;-73
2023/04/04 17:58:28;;;;;;;8.02;1.92;;;;;;;19.86;41.07;97426.34;10381651;28;20042;-74
2023/04/04 18:03:48;;;;;;;7.55;2.17;;;;;;;19.84;41.06;97431.28;10376982;28;20100;-73
2023/04/04 18:09:08;;;;;;;7.10;2.13;;;;;;;19.84;41.11;97436.69;10353111;28;20115;-73
2023/04/04 18:14:28;;;;;;;5.28;2.08;;;;;;;19.82;41.14;97430.78;10350774;28;20041;-73
2023/04/04 18:19:48;;;;;;;4.05;1.67;;;;;;;19.82;41.15;97432.72;10317809;28;20046;-72
2023/04/04 18:25:08;;;;;;;6.22;1.80;;;;;;;19.80;41.78;97434.91;10354023;28;20038;-72
2023/04/04 18:30:28;;;;;;;6.00;1.70;;;;;;;19.78;42.32;97437.94;10330047;28;20104;-74
2023/04/04 18:35:48;;;;;;;5.72;1.90;;;;;;;19.76;42.77;97445.56;10365755;28;20053;-73
2023/04/04 18:41:08;;;;;;;6.80;2.00;;;;;;;19.76;42.97;97450.97;10349859;28;20042;-73
2023/04/04 18:46:28;;;;;;;8.15;1.83;;;;;;;19.74;43.19;97455.88;10354112;28;20037;-73
2023/04/04 18:51:47;;;;;;;6.95;1.90;;;;;;;19.72;42.60;97458.09;10352371;28;20042;-73
2023/04/04 18:57:06;;;;;;;8.05;2.00;;;;;;;19.72;43.19;97466.22;10351612;28;20042;-73
2023/04/04 19:02:26;;;;;;;8.98;1.83;;;;;;;19.72;42.97;97460.81;10350376;28;20054;-73
2023/04/04 19:07:46;;;;;;;5.65;1.90;;;;;;;19.70;43.09;97457.56;10336381;28;20046;-74
2023/04/04 19:13:05;;;;;;;5.63;2.03;;;;;;;19.70;43.21;97452.97;10351403;28;20042;-74
2023/04/04 19:18:25;;;;;;;6.15;2.15;;;;;;;19.70;43.09;97454.88;10338897;28;20502;-73
2023/04/04 19:23:45;;;;;;;7.93;1.70;;;;;;;19.70;43.09;97452.16;10338713;28;20392;-74
2023/04/04 19:29:04;;;;;;;5.03;1.38;;;;;;;19.70;42.76;97452.16;10342839;28;20495;-75
2023/04/04 19:34:24;;;;;;;5.15;1.80;;;;;;;19.68;42.58;97455.19;10347124;28;20043;-73
2023/04/04 19:39:44;;;;;;;5.68;1.60;;;;;;;19.68;42.65;97454.34;10383953;28;20053;-74
2023/04/04 19:45:11;;;;;;;4.50;1.60;;;;;;;19.66;42.61;97459.28;10383075;28;20100;-74
2023/04/04 19:50:36;;;;;;;4.10;1.60;;;;;;;19.66;42.60;97456.56;10378905;28;20049;-75
2023/04/04 19:55:56;;;;;;;3.78;1.75;;;;;;;19.64;42.76;97450.69;10364898;28;20501;-73
2023/04/04 20:01:21;;;;;;;6.05;1.50;;;;;;;19.64;42.80;97458.78;10392873;28;20096;-74
2023/04/04 20:06:41;;;;;;;6.25;1.63;;;;;;;19.63;42.86;97457.22;10377865;28;20041;-74
2023/04/04 20:12:01;;;;;;;8.10;1.65;;;;;;;19.63;42.91;97460.69;10377121;28;20050;-75
2023/04/04 20:17:20;;;;;;;8.57;1.80;;;;;;;19.63;42.99;97459.91;10377285;28;20406;-74
2023/04/04 20:22:39;;;;;;;3.83;1.50;;;;;;;19.61;43.06;97460.22;10364259;28;20045;-75
2023/04/04 20:27:59;;;;;;;2.85;1.60;;;;;;;19.59;43.22;97461.63;10371754;28;20057;-75
2023/04/04 20:33:32;;;;;;;3.28;1.55;;;;;;;19.59;43.38;97461.63;10341013;28;20092;-74
2023/04/04 20:38:52;;;;;;;3.45;1.40;;;;;;;19.57;43.36;97464.63;10342719;28;20088;-74
2023/04/04 20:44:17;;;;;;;5.20;1.60;;;;;;;19.56;43.38;97455.75;10352041;28;20487;-74
2023/04/04 20:49:37;;;;;;;4.15;1.80;;;;;;;19.55;43.31;97459.53;10346993;28;20049;-75
2023/04/04 20:54:57;;;;;;;3.03;1.45;;;;;;;19.53;43.35;97464.44;10347356;28;20084;-74
2023/04/04 21:00:38;;;;;;;3.78;1.60;;;;;;;19.52;43.42;97460.16;10346158;28;20052;-73
2023/04/04 21:06:01;;;;;;;5.53;1.50;;;;;;;19.53;43.30;97467.16;10389015;28;20042;-73
2023/04/04 21:11:28;;;;;;;2.42;1.60;;;;;;;19.53;43.71;97472.56;10388301;28;20405;-74
2023/04/04 21:16:49;;;;;;;5.85;1.52;;;;;;;19.52;43.64;97468.28;10373964;28;20053;-74
2023/04/04 21:22:08;;;;;;;2.42;1.48;;;;;;;19.51;43.76;97469.38;10359742;28;20049;-74
2023/04/04 21:27:33;;;;;;;2.88;1.90;;;;;;;19.50;43.59;97469.66;10368174;28;20060;-74
2023/04/04 21:32:52;;;;;;;3.25;1.67;;;;;;;19.49;43.73;97466.19;10373211;28;20052;-74
2023/04/04 21:38:29;;;;;;;4.15;1.60;;;;;;;19.49;44.02;97468.09;10387857;28;20053;-73
2023/04/04 21:43:49;;;;;;;4.18;1.60;;;;;;;19.48;44.09;97472.69;10372863;28;20042;-74
2023/04/04 21:49:09;;;;;;;2.50;1.60;;;;;;;19.46;43.89;97460.56;10359471;28;20046;-74
2023/04/04 21:54:29;;;;;;;3.28;1.90;;;;;;;19.44;44.22;97468.97;10372544;28;20410;-74
2023/04/04 21:59:48;;;;;;;3.38;1.67;;;;;;;19.44;44.16;97465.50;10358871;28;20359;-74
2023/04/04 22:05:08;;;;;;;3.15;1.67;;;;;;;19.43;44.06;97462.00;10365808;28;20042;-74
2023/04/04 22:10:28;;;;;;;4.43;1.60;;;;;;;19.42;44.22;97456.91;10372455;28;20096;-74
2023/04/04 22:15:51;;;;;;;4.13;1.83;;;;;;;19.39;44.20;97452.91;10386770;28;20042;-74
2023/04/04 22:21:12;;;;;;;2.55;1.63;;;;;;;19.39;44.04;97452.13;10390180;28;20046;-74
2023/04/04 22:26:31;;;;;;;4.35;1.50;;;;;;;19.40;44.29;97459.09;10391717;28;20046;-74
2023/04/04 22:31:51;;;;;;;3.30;1.70;;;;;;;19.38;44.05;97459.41;10393781;28;20407;-73
2023/04/04 22:37:10;;;;;;;3.22;1.50;;;;;;;19.35;43.97;97454.63;10366249;28;20398;-74
2023/04/04 22:42:30;;;;;;;3.67;1.70;;;;;;;19.34;44.07;97455.72;10379542;28;20065;-74
2023/04/04 22:47:50;;;;;;;3.22;1.65;;;;;;;19.32;43.95;97453.31;10379184;28;20053;-74
2023/04/04 22:53:11;;;;;;;2.60;1.70;;;;;;;19.31;43.86;97450.97;10378859;28;20068;-74
2023/04/04 22:58:31;;;;;;;2.60;1.60;;;;;;;19.30;43.69;97449.34;10365389;28;20041;-74
2023/04/04 23:03:50;;;;;;;3.17;1.40;;;;;;;19.28;43.60;97443.44;10393412;28;20049;-74
2023/04/04 23:09:10;;;;;;;2.83;1.58;;;;;;;19.27;43.71;97436.47;10378514;28;20045;-74
2023/04/04 23:14:30;;;;;;;4.00;1.70;;;;;;;19.25;43.49;97425.97;10378381;28;20414;-74
2023/04/04 23:19:49;;;;;;;2.42;1.75;;;;;;;19.24;43.60;97428.97;10364262;28;20074;-74
2023/04/04 23:25:09;;;;;;;2.33;1.60;;;;;;;19.24;43.67;97428.97;10378191;28;20387;-74
2023/04/04 23:30:28;;;;;;;4.20;1.55;;;;;;;19.22;43.41;97429.25;10378948;28;20069;-74
2023/04/04 23:35:48;;;;;;;2.13;1.50;;;;;;;19.22;43.33;97436.56;10377564;28;20482;-74
2023/04/04 23:41:09;;;;;;;1.73;1.40;;;;;;;19.19;43.23;97432.59;10392530;28;20041;-73
2023/04/04 23:46:31;;;;;;;1.95;1.55;;;;;;;19.20;43.19;97422.56;10377278;28;20045;-73
2023/04/04 23:51:50;;;;;;;2.00;1.40;;;;;;;19.17;42.97;97424.78;10377214;28;20050;-73
2023/04/04 23:57:10;;;;;;;3.55;1.80;;;;;;;19.15;43.25;97416.19;10391677;28;20053;-73
